Time;durP1;ratioP1;P1;durP2;ratioP2;P2;SDS_P1;SDS_P2;PMS_P1;PMS_P2;Temp;Humidity;BMP_temperature;BMP_pressure;BME280_temperature;BME280_humidity;BME280_pressure;Samples;Min_cycle;Max_cycle;Signal;HPM_P1;HPM_P2
2022/02/12 00:01:01;;;;;;;7.27;2.97;;;1.10;99.90;;;;;;5075233;28;20218;-72
2022/02/12 00:03:27;;;;;;;12.33;3.20;;;1.10;99.90;;;;;;5074671;28;20217;-70
2022/02/12 00:05:54;;;;;;;7.57;2.50;;;1.20;99.90;;;;;;5075320;28;20224;-70
2022/02/12 00:08:22;;;;;;;4.90;2.73;;;1.20;99.90;;;;;;5074776;28;20225;-67
2022/02/12 00:10:49;;;;;;;9.57;3.10;;;1.20;99.90;;;;;;5075099;28;20321;-72
2022/02/12 00:13:16;;;;;;;6.07;3.07;;;1.20;99.90;;;;;;5074706;28;20199;-68
2022/02/12 00:15:43;;;;;;;11.77;3.93;;;1.20;99.90;;;;;;5075050;28;20225;-72
2022/02/12 00:18:10;;;;;;;11.67;3.47;;;1.20;99.90;;;;;;5074351;28;20227;-70
2022/02/12 00:20:38;;;;;;;15.17;2.97;;;1.00;99.90;;;;;;5074689;28;20208;-68
2022/02/12 00:23:05;;;;;;;9.23;3.23;;;1.10;99.90;;;;;;5074737;28;20206;-68
2022/02/12 00:25:33;;;;;;;11.60;2.83;;;1.10;99.90;;;;;;5074679;28;20209;-72
2022/02/12 00:28:00;;;;;;;11.33;3.00;;;1.20;99.90;;;;;;5074415;28;20222;-67
2022/02/12 00:30:27;;;;;;;5.30;2.53;;;1.20;99.90;;;;;;5074322;28;20235;-72
2022/02/12 00:32:54;;;;;;;6.80;3.23;;;1.20;99.90;;;;;;5074796;28;20215;-68
2022/02/12 00:35:22;;;;;;;9.63;3.20;;;1.30;99.90;;;;;;5074688;28;20214;-70
2022/02/12 00:37:49;;;;;;;5.17;2.90;;;1.20;99.90;;;;;;5074284;28;20308;-70
2022/02/12 00:40:15;;;;;;;9.33;3.77;;;1.10;99.90;;;;;;5074247;28;20290;-72
2022/02/12 00:42:44;;;;;;;8.67;3.47;;;1.10;99.90;;;;;;5073911;28;20203;-73
2022/02/12 00:45:11;;;;;;;7.60;3.30;;;1.20;99.90;;;;;;5074067;28;20204;-72
2022/02/12 00:47:38;;;;;;;8.33;3.30;;;1.10;99.90;;;;;;5074237;28;20227;-69
2022/02/12 00:50:05;;;;;;;13.07;3.60;;;1.10;99.90;;;;;;5074002;28;20780;-73
2022/02/12 00:52:32;;;;;;;7.83;3.90;;;1.20;99.90;;;;;;5073841;28;20208;-73
2022/02/12 00:54:59;;;;;;;7.50;2.70;;;1.20;99.90;;;;;;5073946;28;20284;-69
2022/02/12 00:57:26;;;;;;;16.10;3.17;;;1.20;99.90;;;;;;5073728;28;20199;-68
2022/02/12 00:59:54;;;;;;;7.23;3.00;;;1.20;99.90;;;;;;5073893;28;20231;-73
2022/02/12 01:02:21;;;;;;;9.57;3.57;;;1.10;99.90;;;;;;5073601;28;20215;-68
2022/02/12 01:04:47;;;;;;;12.10;3.37;;;1.20;99.90;;;;;;5073891;28;20551;-69
2022/02/12 01:07:14;;;;;;;9.23;3.30;;;1.20;99.90;;;;;;5073573;28;20294;-68
2022/02/12 01:09:41;;;;;;;10.30;3.80;;;1.20;99.90;;;;;;5073295;28;20277;-72
2022/02/12 01:12:09;;;;;;;7.47;3.23;;;1.20;99.90;;;;;;5073890;28;20562;-69
2022/02/12 01:14:36;;;;;;;4.33;2.90;;;1.20;99.90;;;;;;5073629;28;20662;-69
2022/02/12 01:17:04;;;;;;;9.63;3.93;;;1.20;99.90;;;;;;5073815;28;20199;-68
2022/02/12 01:19:31;;;;;;;10.10;4.10;;;1.10;99.90;;;;;;5073515;28;20234;-69
2022/02/12 01:21:58;;;;;;;9.93;3.40;;;1.10;99.90;;;;;;5073575;28;20310;-69
2022/02/12 01:24:24;;;;;;;5.77;3.07;;;1.10;99.90;;;;;;5073355;28;20207;-72
2022/02/12 01:26:51;;;;;;;10.73;3.50;;;1.10;99.90;;;;;;5073621;28;20207;-72
2022/02/12 01:29:18;;;;;;;6.30;3.30;;;1.00;99.90;;;;;;5072820;28;20586;-72
2022/02/12 01:31:45;;;;;;;8.07;2.87;;;1.10;99.90;;;;;;5073633;28;20234;-70
2022/02/12 01:34:13;;;;;;;10.63;4.20;;;1.10;99.90;;;;;;5073445;28;20203;-69
2022/02/12 01:36:40;;;;;;;9.40;4.00;;;1.00;99.90;;;;;;5073382;28;20554;-71
2022/02/12 01:39:07;;;;;;;7.00;3.73;;;1.10;99.90;;;;;;5073121;28;20573;-72
2022/02/12 01:41:34;;;;;;;7.77;3.70;;;1.00;99.90;;;;;;5073276;28;20203;-72
2022/02/12 01:44:07;;;;;;;9.17;3.53;;;1.00;99.90;;;;;;5073113;28;20209;-69
2022/02/12 01:46:34;;;;;;;8.73;3.67;;;1.00;99.90;;;;;;5073314;28;20207;-72
2022/02/12 01:49:01;;;;;;;7.37;3.73;;;1.10;99.90;;;;;;5073253;28;20237;-71
2022/02/12 01:51:30;;;;;;;14.07;3.37;;;1.00;99.90;;;;;;5073046;28;20238;-68
2022/02/12 01:53:57;;;;;;;18.90;3.93;;;1.00;99.90;;;;;;5072972;28;20204;-72
2022/02/12 01:56:24;;;;;;;10.47;3.50;;;1.00;99.90;;;;;;5073140;28;20199;-70
2022/02/12 01:58:51;;;;;;;6.20;2.43;;;1.00;99.90;;;;;;5072924;28;20226;-71
2022/02/12 02:01:18;;;;;;;8.23;3.27;;;1.00;99.90;;;;;;5073004;28;20294;-73
2022/02/12 02:03:45;;;;;;;6.70;3.80;;;1.00;99.90;;;;;;5069432;22;20235;-74
2022/02/12 02:06:13;;;;;;;8.53;3.03;;;1.10;99.90;;;;;;5032832;28;20212;-74
2022/02/12 02:08:41;;;;;;;6.80;3.60;;;1.00;99.90;;;;;;5032550;28;20221;-74
2022/02/12 02:11:09;;;;;;;6.87;3.50;;;1.10;99.90;;;;;;5032036;28;20240;-74
2022/02/12 02:13:35;;;;;;;8.00;4.00;;;1.10;99.90;;;;;;5031974;28;20268;-74
2022/02/12 02:16:02;;;;;;;11.70;3.43;;;1.10;99.90;;;;;;5031775;28;20204;-75
2022/02/12 02:18:29;;;;;;;8.97;3.53;;;1.00;99.90;;;;;;5031971;28;20715;-75
2022/02/12 02:20:56;;;;;;;7.37;3.13;;;1.00;99.90;;;;;;5032770;28;20212;-74
2022/02/12 02:23:24;;;;;;;9.00;3.77;;;1.00;99.90;;;;;;5032706;28;20533;-75
2022/02/12 02:25:51;;;;;;;6.13;3.17;;;1.10;99.90;;;;;;5032894;28;20209;-74
2022/02/12 02:28:17;;;;;;;6.17;3.33;;;1.00;99.90;;;;;;5032831;28;20221;-75
2022/02/12 02:30:44;;;;;;;7.63;3.47;;;1.00;99.90;;;;;;5032774;28;20228;-74
2022/02/12 02:33:11;;;;;;;11.80;3.80;;;0.90;99.90;;;;;;5032773;28;20204;-74
2022/02/12 02:35:38;;;;;;;8.93;3.53;;;0.90;99.90;;;;;;5032567;28;20208;-75
2022/02/12 02:38:10;;;;;;;13.80;3.70;;;1.00;99.90;;;;;;5032715;28;20256;-74
2022/02/12 02:40:38;;;;;;;7.57;3.77;;;0.90;99.90;;;;;;5034699;28;20223;-74
2022/02/12 02:43:05;;;;;;;5.73;3.10;;;1.00;99.90;;;;;;5036267;28;20559;-74
2022/02/12 02:45:32;;;;;;;6.20;3.73;;;1.00;99.90;;;;;;5036760;28;20216;-74
2022/02/12 02:48:00;;;;;;;11.23;3.83;;;1.00;99.90;;;;;;5036926;28;20252;-75
2022/02/12 02:56:00;;;;;;;12.63;3.20;;;0.90;99.90;;;;;;5036495;28;20204;-75
2022/02/12 02:58:28;;;;;;;13.40;3.63;;;1.00;99.90;;;;;;5037450;28;20232;-75
2022/02/12 03:00:55;;;;;;;6.77;3.17;;;0.90;99.90;;;;;;5037139;28;20209;-75
2022/02/12 03:03:23;;;;;;;5.53;3.00;;;0.80;99.90;;;;;;5037116;28;20212;-75
2022/02/12 03:05:49;;;;;;;7.30;3.87;;;0.80;99.90;;;;;;5036090;28;20205;-75
2022/02/12 03:08:16;;;;;;;10.73;3.80;;;0.80;99.90;;;;;;5035753;28;20706;-75
2022/02/12 03:10:43;;;;;;;8.47;3.90;;;0.80;99.90;;;;;;5036096;28;20233;-75
2022/02/12 03:13:11;;;;;;;12.67;3.57;;;0.70;99.90;;;;;;5035875;28;20207;-75
2022/02/12 03:15:40;;;;;;;8.07;2.83;;;0.70;99.90;;;;;;5036176;28;20205;-75
2022/02/12 03:18:07;;;;;;;8.20;3.27;;;0.70;99.90;;;;;;5036080;28;20648;-75
2022/02/12 03:20:34;;;;;;;7.47;3.23;;;0.60;99.90;;;;;;5035819;28;20212;-74
2022/02/12 03:23:01;;;;;;;7.37;3.43;;;0.50;99.90;;;;;;5035713;28;20208;-74
2022/02/12 03:25:28;;;;;;;9.73;3.00;;;0.50;99.90;;;;;;5035901;28;20205;-75
2022/02/12 03:27:55;;;;;;;13.33;3.50;;;0.40;99.90;;;;;;5035668;28;20587;-74
2022/02/12 03:30:23;;;;;;;11.20;4.73;;;0.50;99.90;;;;;;5035421;28;20286;-74
2022/02/12 03:32:50;;;;;;;9.83;3.50;;;0.60;99.90;;;;;;5035413;28;20205;-75
2022/02/12 03:35:17;;;;;;;8.80;3.73;;;0.70;99.90;;;;;;5035630;28;20562;-74
2022/02/12 03:37:43;;;;;;;5.47;3.03;;;0.90;99.90;;;;;;5035326;28;20319;-74
2022/02/12 03:40:12;;;;;;;8.23;4.03;;;0.90;99.90;;;;;;5034944;28;20220;-75
2022/02/12 03:42:39;;;;;;;6.70;3.50;;;0.80;99.90;;;;;;5035013;28;20201;-75
2022/02/12 03:45:07;;;;;;;8.83;3.50;;;0.80;99.90;;;;;;5035245;28;20209;-75
2022/02/12 03:47:35;;;;;;;10.20;3.33;;;0.70;99.90;;;;;;5035390;28;20690;-75
2022/02/12 03:50:03;;;;;;;7.07;3.17;;;0.70;99.90;;;;;;5035423;28;20259;-75
2022/02/12 03:52:30;;;;;;;11.27;4.00;;;0.80;99.90;;;;;;5034742;28;20287;-75
2022/02/12 03:54:57;;;;;;;15.33;4.30;;;1.00;99.90;;;;;;5035187;28;20549;-75
2022/02/12 03:57:23;;;;;;;7.03;3.60;;;0.90;99.90;;;;;;5034934;28;20219;-74
2022/02/12 03:59:50;;;;;;;8.93;3.20;;;0.80;99.90;;;;;;5035262;28;20204;-74
2022/02/12 04:02:17;;;;;;;6.53;3.67;;;0.80;99.90;;;;;;5035183;28;20216;-74
2022/02/12 04:04:45;;;;;;;6.63;2.70;;;0.90;99.90;;;;;;5035041;28;20216;-75
2022/02/12 04:07:12;;;;;;;7.63;3.13;;;0.90;99.90;;;;;;5035191;28;20215;-74
2022/02/12 04:09:39;;;;;;;9.33;3.03;;;0.70;99.90;;;;;;5034837;28;20298;-74
2022/02/12 04:12:06;;;;;;;13.60;3.40;;;0.70;99.90;;;;;;5034639;28;20238;-74
2022/02/12 04:14:33;;;;;;;8.27;3.43;;;0.70;99.90;;;;;;5034089;28;20213;-74
2022/02/12 04:17:00;;;;;;;8.37;3.47;;;0.70;99.90;;;;;;5034769;28;20209;-74
2022/02/12 04:19:26;;;;;;;10.07;3.27;;;0.70;99.90;;;;;;5034702;28;20335;-74
2022/02/12 04:21:55;;;;;;;8.33;3.20;;;0.70;99.90;;;;;;5034830;28;20283;-74
2022/02/12 04:24:22;;;;;;;10.50;3.60;;;0.70;99.90;;;;;;5034528;28;20206;-74
2022/02/12 04:26:48;;;;;;;9.40;3.20;;;0.70;99.90;;;;;;5034561;28;20204;-75
2022/02/12 04:29:15;;;;;;;9.67;2.90;;;0.80;99.90;;;;;;5034047;28;20227;-74
2022/02/12 04:31:42;;;;;;;7.33;3.53;;;0.90;99.90;;;;;;5034508;28;20232;-74
2022/02/12 04:34:09;;;;;;;10.87;3.20;;;1.00;99.90;;;;;;5034634;28;20205;-74
2022/02/12 04:36:36;;;;;;;6.50;3.40;;;1.00;99.90;;;;;;5034848;28;20205;-74
2022/02/12 04:39:04;;;;;;;10.97;4.03;;;1.10;99.90;;;;;;5033898;28;20225;-74
2022/02/12 04:41:31;;;;;;;13.93;4.20;;;1.10;99.90;;;;;;5034600;28;20211;-74
2022/02/12 04:43:58;;;;;;;9.10;3.60;;;1.10;99.90;;;;;;5035196;28;20219;-75
2022/02/12 04:46:25;;;;;;;11.67;4.20;;;1.10;99.90;;;;;;5035209;28;20205;-75
2022/02/12 04:48:51;;;;;;;10.20;3.63;;;1.10;99.90;;;;;;5035415;28;20278;-75
2022/02/12 04:51:18;;;;;;;8.20;3.90;;;1.10;99.90;;;;;;5035265;28;20304;-75
2022/02/12 04:53:48;;;;;;;14.37;4.30;;;1.10;99.90;;;;;;5034158;28;20567;-75
2022/02/12 04:56:17;;;;;;;7.57;3.40;;;1.10;99.90;;;;;;5033780;28;20659;-75
2022/02/12 04:58:43;;;;;;;7.70;2.73;;;1.10;99.90;;;;;;5033721;28;20225;-74
2022/02/12 05:01:19;;;;;;;6.67;3.67;;;1.10;99.90;;;;;;5034088;28;20359;-75
2022/02/12 05:03:48;;;;;;;16.47;3.13;;;1.10;99.90;;;;;;5033310;28;20223;-74
2022/02/12 05:06:15;;;;;;;9.93;4.10;;;1.20;99.90;;;;;;5034295;28;20205;-75
2022/02/12 05:08:41;;;;;;;10.03;2.73;;;1.20;99.90;;;;;;5033769;28;20231;-74
2022/02/12 05:11:08;;;;;;;10.83;4.00;;;1.10;99.90;;;;;;5033612;28;20727;-74
2022/02/12 05:13:37;;;;;;;12.00;2.77;;;1.10;99.90;;;;;;5033540;28;20300;-75
2022/02/12 05:16:04;;;;;;;14.20;3.60;;;1.10;99.90;;;;;;5034055;28;20211;-74
2022/02/12 05:18:31;;;;;;;4.47;2.30;;;1.10;99.90;;;;;;5033351;28;20232;-75
2022/02/12 05:20:58;;;;;;;7.27;2.90;;;1.10;99.90;;;;;;5033592;28;20215;-75
2022/02/12 05:23:25;;;;;;;10.07;2.43;;;1.10;99.90;;;;;;5033430;28;20664;-75
2022/02/12 05:25:52;;;;;;;7.27;2.60;;;1.10;99.90;;;;;;5033630;28;20204;-75
2022/02/12 05:28:18;;;;;;;10.10;3.67;;;1.00;99.90;;;;;;5033747;28;20228;-75
2022/02/12 05:30:46;;;;;;;7.70;2.70;;;1.00;99.90;;;;;;5033549;28;20201;-75
2022/02/12 05:33:13;;;;;;;8.77;3.00;;;1.00;99.90;;;;;;5033573;28;20545;-75
2022/02/12 05:35:41;;;;;;;10.07;3.00;;;1.00;99.90;;;;;;5033535;28;20204;-75
2022/02/12 05:38:08;;;;;;;6.90;2.70;;;1.00;99.90;;;;;;5032616;28;20649;-75
2022/02/12 05:40:35;;;;;;;5.93;2.33;;;1.00;99.90;;;;;;5032670;28;20216;-75
2022/02/12 05:43:02;;;;;;;4.87;2.07;;;1.10;99.90;;;;;;5033053;28;20267;-74
2022/02/12 05:45:29;;;;;;;5.07;2.73;;;1.10;99.90;;;;;;5033393;28;20204;-75
2022/02/12 05:47:59;;;;;;;6.43;2.20;;;1.20;99.90;;;;;;5033088;28;20235;-74
2022/02/12 05:50:27;;;;;;;6.73;2.80;;;1.10;99.90;;;;;;5033022;28;20201;-75
2022/02/12 05:52:54;;;;;;;10.17;2.50;;;1.10;99.90;;;;;;5032980;28;20719;-75
2022/02/12 05:55:21;;;;;;;5.63;2.50;;;1.10;99.90;;;;;;5032823;28;20208;-74
2022/02/12 05:57:48;;;;;;;10.60;2.67;;;1.20;99.90;;;;;;5032773;28;20228;-74
2022/02/12 06:00:16;;;;;;;5.83;2.73;;;1.20;99.90;;;;;;5033290;28;20204;-74
2022/02/12 06:02:43;;;;;;;4.57;2.30;;;1.20;99.90;;;;;;5033143;28;20611;-74
2022/02/12 06:05:11;;;;;;;6.80;2.10;;;1.20;99.90;;;;;;5032475;28;20296;-75
2022/02/12 06:07:38;;;;;;;5.07;2.47;;;1.20;99.90;;;;;;5032648;28;20225;-75
2022/02/12 06:10:05;;;;;;;5.70;2.20;;;1.20;99.90;;;;;;5032956;28;20568;-75
2022/02/12 06:12:32;;;;;;;10.20;2.50;;;1.20;99.90;;;;;;5032719;28;20717;-75
2022/02/12 06:14:59;;;;;;;6.77;2.10;;;1.20;99.90;;;;;;5032604;28;20303;-74
2022/02/12 06:17:26;;;;;;;7.60;2.17;;;1.10;99.90;;;;;;5033133;28;20208;-74
2022/02/12 06:19:54;;;;;;;9.63;2.40;;;1.10;99.90;;;;;;5032692;28;20663;-75
2022/02/12 06:22:24;;;;;;;11.97;2.57;;;1.00;99.90;;;;;;5032522;28;20201;-74
2022/02/12 06:24:51;;;;;;;5.83;2.33;;;1.10;99.90;;;;;;5032811;28;20209;-74
2022/02/12 06:27:18;;;;;;;9.70;2.73;;;1.10;99.90;;;;;;5032709;28;20259;-74
2022/02/12 06:29:45;;;;;;;7.13;2.40;;;1.10;99.90;;;;;;5032648;28;20205;-75
2022/02/12 06:32:12;;;;;;;12.83;2.50;;;1.10;99.90;;;;;;5031564;28;20282;-74
2022/02/12 06:34:39;;;;;;;9.40;2.50;;;1.10;99.90;;;;;;5032545;28;20211;-74
2022/02/12 06:37:06;;;;;;;6.30;2.70;;;1.10;99.90;;;;;;5032575;28;20211;-75
2022/02/12 06:39:34;;;;;;;11.67;3.27;;;1.20;99.90;;;;;;5032558;28;20232;-74
2022/02/12 06:42:02;;;;;;;6.43;1.90;;;1.10;99.90;;;;;;5032682;28;20209;-74
2022/02/12 06:44:29;;;;;;;3.73;1.83;;;1.10;99.90;;;;;;5032477;28;20208;-74
2022/02/12 06:46:56;;;;;;;5.13;2.30;;;1.10;99.90;;;;;;5032660;28;20204;-74
2022/02/12 06:49:22;;;;;;;5.13;2.23;;;1.00;99.90;;;;;;5032335;28;20587;-74
2022/02/12 06:51:49;;;;;;;7.03;2.33;;;1.00;99.90;;;;;;5032119;28;20239;-74
2022/02/12 06:54:16;;;;;;;4.47;1.93;;;1.10;99.90;;;;;;5032220;28;20213;-73
2022/02/12 06:56:44;;;;;;;10.87;2.40;;;1.10;99.90;;;;;;5032650;28;20284;-75
2022/02/12 06:59:11;;;;;;;5.23;2.20;;;1.10;99.90;;;;;;5032186;28;20219;-75
2022/02/12 07:01:38;;;;;;;5.37;2.37;;;1.10;99.90;;;;;;5032333;28;20208;-74
2022/02/12 07:04:05;;;;;;;6.03;1.93;;;1.10;99.90;;;;;;5032606;28;20217;-75
2022/02/12 07:06:32;;;;;;;6.33;1.93;;;1.10;99.90;;;;;;5032341;28;20208;-74
2022/02/12 07:08:58;;;;;;;4.90;2.53;;;1.10;99.90;;;;;;5032385;28;20228;-74
2022/02/12 07:11:25;;;;;;;7.47;2.50;;;1.20;99.90;;;;;;5031824;28;20205;-75
2022/02/12 07:13:54;;;;;;;3.20;1.70;;;1.10;99.90;;;;;;5031270;28;20197;-74
2022/02/12 07:16:21;;;;;;;25.67;2.40;;;1.10;99.90;;;;;;5031065;28;20205;-74
2022/02/12 07:18:48;;;;;;;8.60;2.17;;;1.20;99.90;;;;;;5031461;28;20221;-73
2022/02/12 07:21:18;;;;;;;5.90;2.13;;;1.30;99.90;;;;;;5031928;28;20205;-74
2022/02/12 07:23:45;;;;;;;9.10;2.23;;;1.40;99.90;;;;;;5032069;28;20209;-75
2022/02/12 07:26:12;;;;;;;4.23;2.13;;;1.40;99.90;;;;;;5031905;28;20205;-74
2022/02/12 07:28:40;;;;;;;8.47;2.57;;;1.50;99.90;;;;;;5034922;28;20236;-75
2022/02/12 07:31:09;;;;;;;6.23;1.90;;;1.60;99.90;;;;;;5035970;28;20221;-74
2022/02/12 07:33:36;;;;;;;5.63;2.00;;;1.70;99.90;;;;;;5035103;28;20739;-74
2022/02/12 07:36:04;;;;;;;7.03;2.33;;;1.80;99.90;;;;;;5035828;28;20205;-74
2022/02/12 07:38:30;;;;;;;8.33;2.50;;;1.80;99.90;;;;;;5035485;28;20236;-75
2022/02/12 07:40:57;;;;;;;6.93;1.73;;;1.80;99.90;;;;;;5034867;28;20221;-75
2022/02/12 07:43:24;;;;;;;5.90;2.00;;;1.80;99.90;;;;;;5034109;28;20206;-75
2022/02/12 07:45:51;;;;;;;5.27;1.90;;;1.80;99.90;;;;;;5035278;28;20211;-74
2022/02/12 07:48:19;;;;;;;5.13;1.87;;;1.80;99.90;;;;;;5035652;28;20583;-74
2022/02/12 07:50:46;;;;;;;3.30;1.90;;;1.90;99.90;;;;;;5035570;28;20215;-75
2022/02/12 07:53:14;;;;;;;6.53;2.17;;;1.90;99.90;;;;;;5035075;28;20719;-75
2022/02/12 07:55:41;;;;;;;8.70;2.33;;;2.00;99.90;;;;;;5035212;28;20208;-75
2022/02/12 07:58:08;;;;;;;5.07;1.90;;;2.10;99.90;;;;;;5034972;28;20224;-74
2022/02/12 08:00:36;;;;;;;8.07;2.30;;;2.10;99.90;;;;;;5034648;28;20201;-75
2022/02/12 08:03:03;;;;;;;4.37;1.80;;;2.10;99.90;;;;;;5052863;23;20192;-70
2022/02/12 08:05:31;;;;;;;7.50;2.40;;;2.00;99.90;;;;;;5095171;28;20205;-67
2022/02/12 08:08:02;;;;;;;6.47;2.00;;;2.00;99.90;;;;;;5095300;28;20218;-71
2022/02/12 08:13:13;;;;;;;6.33;2.30;;;2.20;99.90;;;;;;5095158;28;20241;-68
2022/02/12 08:15:40;;;;;;;4.47;2.00;;;2.40;99.90;;;;;;5095290;28;20206;-69
2022/02/12 08:18:06;;;;;;;8.13;1.90;;;2.40;99.90;;;;;;5095205;28;20222;-67
2022/02/12 08:20:35;;;;;;;5.93;1.70;;;2.30;99.90;;;;;;5094979;28;20209;-66
2022/02/12 08:23:02;;;;;;;4.63;2.13;;;2.40;99.90;;;;;;5095048;28;20206;-68
2022/02/12 08:25:28;;;;;;;8.43;2.30;;;2.20;99.90;;;;;;5095337;28;20213;-70
2022/02/12 08:27:55;;;;;;;9.73;2.30;;;2.20;99.90;;;;;;5095070;28;20222;-66
2022/02/12 08:30:23;;;;;;;6.90;2.20;;;2.30;99.90;;;;;;5094490;28;20209;-68
2022/02/12 08:32:50;;;;;;;10.13;2.30;;;2.60;99.90;;;;;;5094238;28;20230;-68
2022/02/12 08:35:17;;;;;;;7.73;2.43;;;2.80;99.90;;;;;;5094697;28;20203;-71
2022/02/12 08:37:46;;;;;;;9.90;2.17;;;2.90;99.90;;;;;;5093498;28;20712;-67
2022/02/12 08:40:15;;;;;;;6.97;2.17;;;3.10;99.90;;;;;;5094794;28;20207;-71
2022/02/12 08:42:42;;;;;;;4.93;1.80;;;3.30;99.90;;;;;;5094003;28;20199;-68
2022/02/12 08:45:10;;;;;;;5.37;2.30;;;3.20;99.90;;;;;;5093953;28;20209;-67
2022/02/12 08:47:37;;;;;;;9.30;1.87;;;3.30;99.90;;;;;;5093075;28;20199;-71
2022/02/12 08:50:08;;;;;;;8.83;2.37;;;3.80;99.90;;;;;;5093823;28;20198;-70
2022/02/12 08:52:35;;;;;;;7.67;2.20;;;4.30;99.90;;;;;;5093714;28;20574;-70
2022/02/12 08:55:03;;;;;;;7.37;2.00;;;4.60;99.90;;;;;;5094539;28;20207;-68
2022/02/12 08:57:30;;;;;;;4.83;1.90;;;5.00;99.90;;;;;;5094568;28;20623;-68
2022/02/12 08:59:57;;;;;;;4.73;2.00;;;5.00;99.90;;;;;;5094309;28;20206;-71
2022/02/12 09:02:24;;;;;;;4.37;1.80;;;4.90;99.90;;;;;;5094553;28;20199;-69
2022/02/12 09:04:51;;;;;;;3.57;1.73;;;5.30;99.90;;;;;;5093747;28;20245;-71
2022/02/12 09:07:17;;;;;;;8.00;1.70;;;5.30;99.90;;;;;;5093559;28;20202;-72
2022/02/12 09:09:45;;;;;;;6.30;1.70;;;5.30;99.90;;;;;;5093786;28;20210;-68
2022/02/12 09:12:13;;;;;;;6.23;1.90;;;5.30;99.90;;;;;;5093910;28;20319;-72
2022/02/12 09:14:40;;;;;;;2.93;1.57;;;5.30;99.90;;;;;;5093788;28;20206;-71
2022/02/12 09:17:07;;;;;;;5.97;1.63;;;5.00;99.90;;;;;;5093844;28;20205;-71
2022/02/12 09:19:35;;;;;;;3.50;1.30;;;5.00;99.90;;;;;;5093457;28;20226;-69
2022/02/12 09:22:02;;;;;;;6.50;1.60;;;4.80;99.90;;;;;;5093968;28;20722;-72
2022/02/12 09:24:28;;;;;;;3.90;1.40;;;4.80;99.90;;;;;;5093787;28;20198;-68
2022/02/12 09:26:55;;;;;;;5.23;1.40;;;4.80;99.90;;;;;;5094008;28;20311;-69
2022/02/12 09:29:23;;;;;;;6.73;2.07;;;4.80;99.90;;;;;;5093735;28;20222;-72
2022/02/12 09:31:50;;;;;;;2.83;1.30;;;4.60;99.90;;;;;;5093510;28;20204;-68
2022/02/12 09:34:17;;;;;;;6.10;1.40;;;4.70;99.90;;;;;;5093797;28;20230;-72
2022/02/12 09:36:44;;;;;;;6.07;1.30;;;4.80;99.90;;;;;;5093648;28;20202;-71
2022/02/12 09:39:12;;;;;;;5.67;1.87;;;4.90;99.90;;;;;;5093506;28;20227;-72
2022/02/12 09:41:39;;;;;;;6.27;1.87;;;4.90;99.90;;;;;;5093520;28;20557;-71
2022/02/12 09:44:08;;;;;;;4.70;1.60;;;4.90;99.90;;;;;;5093487;28;20213;-71
2022/02/12 09:47:19;;;;;;;8.53;1.67;;;5.00;99.90;;;;;;5088579;28;20195;-66
2022/02/12 09:49:49;;;;;;;4.13;1.43;;;4.90;99.90;;;;;;5087508;28;20210;-71
2022/02/12 09:52:18;;;;;;;4.67;1.83;;;4.90;99.90;;;;;;5088620;28;20209;-66
2022/02/12 09:54:45;;;;;;;3.30;1.60;;;5.10;99.90;;;;;;5081265;28;20210;-71
2022/02/12 09:57:12;;;;;;;4.00;1.60;;;5.20;99.90;;;;;;5084370;28;20204;-67
2022/02/12 09:59:39;;;;;;;4.87;1.63;;;5.30;99.90;;;;;;5092922;28;20222;-70
2022/02/12 10:02:06;;;;;;;3.17;1.77;;;5.40;99.90;;;;;;5093029;28;20584;-69
2022/02/12 10:04:34;;;;;;;3.63;1.90;;;5.30;99.90;;;;;;5089645;28;20203;-71
2022/02/12 10:07:00;;;;;;;5.40;1.37;;;5.20;99.90;;;;;;5082587;28;20198;-66
2022/02/12 10:09:27;;;;;;;5.97;1.40;;;5.20;99.90;;;;;;5092634;28;20223;-68
2022/02/12 10:11:55;;;;;;;4.93;1.43;;;5.10;99.90;;;;;;5093299;28;20198;-72
2022/02/12 10:14:24;;;;;;;5.97;1.40;;;5.30;99.90;;;;;;5092877;28;20280;-68
2022/02/12 10:16:53;;;;;;;4.40;1.43;;;5.10;99.90;;;;;;5092374;28;20669;-71
2022/02/12 10:19:29;;;;;;;6.53;1.47;;;5.20;99.90;;;;;;5092742;28;20248;-67
2022/02/12 10:22:12;;;;;;;6.57;1.30;;;5.20;99.90;;;;;;5092191;28;20683;-70
2022/02/12 10:24:47;;;;;;;2.40;1.30;;;5.30;99.90;;;;;;5092822;28;20202;-68
2022/02/12 10:27:14;;;;;;;1.80;1.23;;;5.40;99.90;;;;;;5092629;28;20202;-67
2022/02/12 10:29:41;;;;;;;9.43;1.63;;;5.50;99.90;;;;;;5092698;28;20222;-67
2022/02/12 10:32:10;;;;;;;6.63;1.47;;;5.40;99.90;;;;;;5092758;28;20652;-69
2022/02/12 10:34:42;;;;;;;3.57;1.00;;;5.50;99.90;;;;;;5092938;28;20310;-68
2022/02/12 10:37:12;;;;;;;3.30;1.23;;;5.60;99.90;;;;;;5082611;28;20203;-72
2022/02/12 10:39:49;;;;;;;4.17;1.23;;;5.80;99.90;;;;;;5086636;28;20226;-69
2022/02/12 10:42:17;;;;;;;4.63;1.50;;;5.80;99.90;;;;;;5087938;28;20255;-68
2022/02/12 10:44:44;;;;;;;4.07;1.37;;;5.80;99.90;;;;;;5091750;28;20202;-69
2022/02/12 10:47:13;;;;;;;5.40;1.07;;;5.90;99.90;;;;;;5091962;28;20631;-72
2022/02/12 10:49:41;;;;;;;8.70;1.30;;;6.00;99.90;;;;;;5091885;28;20230;-67
2022/02/12 10:52:07;;;;;;;3.27;1.10;;;6.00;99.90;;;;;;5092283;28;20225;-71
2022/02/12 10:54:42;;;;;;;4.77;1.20;;;6.00;99.90;;;;;;5092345;28;20241;-68
2022/02/12 10:57:09;;;;;;;3.80;1.17;;;6.00;99.90;;;;;;5092203;28;20198;-70
2022/02/12 10:59:38;;;;;;;3.27;1.10;;;6.10;99.90;;;;;;5092414;28;20717;-71
2022/02/12 11:02:08;;;;;;;7.30;1.67;;;6.10;99.90;;;;;;5093861;28;20206;-71
2022/02/12 11:04:38;;;;;;;4.63;1.60;;;6.20;99.90;;;;;;5096079;28;20623;-72
2022/02/12 11:07:05;;;;;;;4.17;1.00;;;6.20;99.90;;;;;;5096081;28;20213;-71
2022/02/12 11:09:33;;;;;;;7.53;1.30;;;6.30;99.90;;;;;;5096198;28;20218;-69
2022/02/12 11:12:04;;;;;;;2.80;1.10;;;6.30;99.90;;;;;;5096150;28;20211;-72
2022/02/12 11:14:33;;;;;;;3.67;1.00;;;6.30;99.90;;;;;;5096424;28;20240;-69
2022/02/12 11:17:03;;;;;;;1.93;0.70;;;6.40;99.90;;;;;;5094491;28;20202;-68
2022/02/12 11:19:30;;;;;;;2.73;1.17;;;6.50;99.90;;;;;;5095793;28;20275;-71
2022/02/12 11:21:58;;;;;;;5.23;0.93;;;6.50;99.90;;;;;;5096083;28;20229;-67
2022/02/12 11:24:39;;;;;;;8.43;1.80;;;6.50;99.90;;;;;;5095761;28;20574;-68
2022/02/12 11:27:19;;;;;;;5.13;0.93;;;6.50;99.90;;;;;;5095775;28;20206;-68
2022/02/12 11:29:47;;;;;;;1.83;0.90;;;6.70;99.90;;;;;;5095634;28;20675;-67
2022/02/12 11:32:15;;;;;;;5.63;1.47;;;6.80;99.90;;;;;;5095839;28;20298;-70
2022/02/12 11:35:18;;;;;;;5.90;1.13;;;6.90;99.90;;;;;;5095848;28;20661;-70
2022/02/12 11:37:46;;;;;;;2.90;0.93;;;7.10;99.90;;;;;;5095409;28;20326;-67
2022/02/12 11:40:14;;;;;;;2.43;0.90;;;7.20;99.90;;;;;;5095425;28;20209;-71
2022/02/12 11:42:45;;;;;;;6.17;1.77;;;7.10;99.90;;;;;;5095244;28;20205;-67
2022/02/12 11:45:29;;;;;;;2.03;0.60;;;7.10;99.90;;;;;;5095600;28;20209;-71
2022/02/12 11:48:13;;;;;;;3.63;1.20;;;7.30;99.90;;;;;;5094094;28;20287;-68
2022/02/12 11:50:48;;;;;;;6.40;1.03;;;7.30;99.90;;;;;;5091311;28;20661;-68
2022/02/12 11:53:34;;;;;;;3.40;1.10;;;7.40;99.90;;;;;;5093988;28;20214;-70
2022/02/12 11:56:02;;;;;;;3.87;1.13;;;7.30;99.90;;;;;;5090567;28;20230;-69
2022/02/12 11:59:09;;;;;;;4.53;1.10;;;7.30;99.90;;;;;;5093716;28;20280;-70
2022/02/12 12:01:53;;;;;;;2.77;1.03;;;7.40;99.90;;;;;;5094940;28;20206;-68
2022/02/12 12:04:25;;;;;;;2.30;0.90;;;7.40;99.90;;;;;;5095190;28;20225;-68
2022/02/12 12:07:14;;;;;;;3.90;0.90;;;7.30;99.90;;;;;;5095005;28;20207;-67
2022/02/12 12:10:10;;;;;;;2.43;0.67;;;7.30;99.90;;;;;;5095092;28;20226;-67
2022/02/12 12:12:37;;;;;;;2.40;0.90;;;7.30;99.90;;;;;;5094796;28;20214;-69
2022/02/12 12:15:20;;;;;;;4.00;0.83;;;7.40;99.90;;;;;;5094636;28;20584;-69
2022/02/12 12:18:00;;;;;;;2.53;1.00;;;7.50;99.90;;;;;;5094736;28;20218;-72
2022/02/12 12:20:38;;;;;;;6.60;1.30;;;7.50;99.90;;;;;;5094347;28;20293;-70
2022/02/12 12:23:06;;;;;;;1.90;0.90;;;7.40;99.90;;;;;;5094667;28;20198;-68
2022/02/12 12:25:53;;;;;;;2.77;1.03;;;7.40;99.90;;;;;;5094745;28;20213;-68
2022/02/12 12:28:31;;;;;;;5.03;0.90;;;7.40;99.90;;;;;;5094663;28;20222;-70
2022/02/12 12:30:57;;;;;;;12.23;1.03;;;7.50;99.90;;;;;;5094574;28;20660;-72
2022/02/12 12:33:27;;;;;;;4.37;1.07;;;7.50;99.90;;;;;;5094377;28;20558;-67
2022/02/12 12:35:55;;;;;;;3.07;1.20;;;7.50;99.90;;;;;;5094429;28;20209;-72
2022/02/12 12:38:35;;;;;;;5.93;0.90;;;7.60;99.90;;;;;;5094245;28;20233;-71
2022/02/12 12:41:20;;;;;;;2.13;0.93;;;7.60;99.90;;;;;;5093795;28;20206;-69
2022/02/12 12:43:47;;;;;;;8.90;0.93;;;7.60;99.90;;;;;;5094174;28;20209;-70
2022/02/12 12:46:14;;;;;;;3.43;1.00;;;7.50;99.90;;;;;;5089521;28;20205;-67
2022/02/12 12:48:42;;;;;;;2.67;1.30;;;7.50;99.90;;;;;;5072494;28;20223;-69
2022/02/12 12:51:16;;;;;;;2.07;0.97;;;7.50;99.90;;;;;;5073032;28;20214;-69
2022/02/12 12:53:44;;;;;;;3.17;0.97;;;7.60;99.90;;;;;;5071975;28;20227;-69
2022/02/12 12:56:11;;;;;;;2.60;1.07;;;7.70;99.90;;;;;;5078388;28;20225;-68
2022/02/12 12:58:37;;;;;;;4.03;1.43;;;7.70;99.90;;;;;;5092939;28;20317;-69
2022/02/12 13:01:08;;;;;;;4.03;1.10;;;7.80;99.90;;;;;;5092199;28;20206;-67
2022/02/12 13:03:47;;;;;;;2.80;0.87;;;7.80;99.90;;;;;;5092773;28;20214;-68
2022/02/12 13:06:14;;;;;;;4.93;1.10;;;7.70;99.90;;;;;;5092467;28;20198;-68
2022/02/12 13:08:41;;;;;;;3.03;0.90;;;7.70;99.90;;;;;;5092151;28;20227;-70
2022/02/12 13:11:09;;;;;;;2.87;0.90;;;7.80;99.90;;;;;;5092300;28;20203;-69